Iron, Minnesota
Current Conditions -  °F | °C
As of 4:11 PM on Saturday 20 Dec 2014 (Local Time) from KEVM Reporting Station
Haze Haze  
Wind Chill: 23°   Ceiling: 700
Heat Index: 30°   Visibility: 4mi
Dew Point: 28°   Wind: 7mph
Humidity: 93%   Direction: 170°S
Pressure: 30.05"   Gusts: NA
Location:  47.41°N, 92.65°W
Report Text: KEVM 202211Z AUTO 17006KT 4SM BR OVC007 M01/M02 A3005 RMK AO2
Loading
Personal Weather Stations






























Interactive Weather Map New forecast layout! Learn more

10-Day Weather Forecast

Advertisements
Track Severe Weather on mobile